createdAt,value
2017-09-04T00:00:52.104Z,69.33
2017-09-04T00:03:19.744Z,69.05
2017-09-04T00:05:47.386Z,69.19
2017-09-04T00:08:15.005Z,69.52
2017-09-04T00:10:42.610Z,70.17
2017-09-04T00:13:10.243Z,70.20
2017-09-04T00:15:37.837Z,70.32
2017-09-04T00:18:05.461Z,70.37
2017-09-04T00:20:33.045Z,69.95
2017-09-04T00:23:00.687Z,70.20
2017-09-04T00:25:28.311Z,69.91
2017-09-04T00:27:55.938Z,69.46
2017-09-04T00:30:23.577Z,69.51
2017-09-04T00:32:51.218Z,69.71
2017-09-04T00:35:18.893Z,70.18
2017-09-04T00:37:46.494Z,70.94
2017-09-04T00:40:14.112Z,70.64
2017-09-04T00:42:41.714Z,70.96
2017-09-04T00:45:09.314Z,70.40
2017-09-04T00:47:36.922Z,70.67
2017-09-04T00:50:04.549Z,70.97
2017-09-04T00:52:32.168Z,71.25
2017-09-04T00:54:59.810Z,70.55
2017-09-04T00:57:27.451Z,70.35
2017-09-04T00:59:55.101Z,70.10
2017-09-04T01:02:22.718Z,70.30
2017-09-04T01:04:50.372Z,70.07
2017-09-04T01:07:17.995Z,70.23
2017-09-04T01:09:45.626Z,70.18
2017-09-04T01:12:13.247Z,70.17
2017-09-04T01:14:40.874Z,70.37
2017-09-04T01:17:08.514Z,70.71
2017-09-04T01:19:36.135Z,70.92
2017-09-04T01:22:03.757Z,70.67
2017-09-04T01:24:31.419Z,70.99
2017-09-04T01:26:59.078Z,71.15
2017-09-04T01:29:26.762Z,71.05
2017-09-04T01:31:54.411Z,71.74
2017-09-04T01:34:22.061Z,70.98
2017-09-04T01:36:49.722Z,71.57
2017-09-04T01:39:17.414Z,71.63
2017-09-04T01:41:45.062Z,71.46
2017-09-04T01:44:12.688Z,72.12
2017-09-04T01:46:40.341Z,71.97
2017-09-04T01:49:08.053Z,72.37
2017-09-04T01:51:35.682Z,71.46
2017-09-04T01:54:03.314Z,71.65
2017-09-04T01:56:30.931Z,71.71
2017-09-04T01:58:58.571Z,71.97
2017-09-04T02:01:26.166Z,72.33
2017-09-04T02:03:53.803Z,71.97
2017-09-04T02:06:21.435Z,71.56
2017-09-04T02:08:49.068Z,71.98
2017-09-04T02:11:16.699Z,71.85
2017-09-04T02:13:44.318Z,71.93
2017-09-04T02:16:11.978Z,71.82
2017-09-04T02:18:39.578Z,71.94
2017-09-04T02:21:07.210Z,71.76
2017-09-04T02:23:34.814Z,71.94
2017-09-04T02:26:02.439Z,72.20
2017-09-04T02:28:30.066Z,72.75
2017-09-04T02:30:57.734Z,72.32
2017-09-04T02:33:25.403Z,72.68
2017-09-04T02:35:53.045Z,72.49
2017-09-04T02:38:20.643Z,72.38
2017-09-04T02:40:48.287Z,72.66
2017-09-04T02:43:15.912Z,73.00
2017-09-04T02:45:43.534Z,73.13
2017-09-04T02:48:11.167Z,73.29
2017-09-04T02:50:38.808Z,73.82
2017-09-04T02:53:06.426Z,73.39
2017-09-04T02:55:34.071Z,73.47
2017-09-04T02:58:01.679Z,73.43
2017-09-04T03:00:29.380Z,73.54
2017-09-04T03:02:56.987Z,73.72
2017-09-04T03:05:24.623Z,74.42
2017-09-04T03:07:52.313Z,74.12
2017-09-04T03:10:19.930Z,74.17
2017-09-04T03:12:47.524Z,74.28
2017-09-04T03:15:15.234Z,74.46
2017-09-04T03:17:42.838Z,74.69
2017-09-04T03:20:10.498Z,74.85
2017-09-04T03:22:38.153Z,75.20
2017-09-04T03:25:05.766Z,75.08
2017-09-04T03:27:33.394Z,75.15
2017-09-04T03:30:00.990Z,74.66
2017-09-04T03:32:28.690Z,74.43
2017-09-04T03:34:56.290Z,74.61
2017-09-04T03:37:23.926Z,74.86
2017-09-04T03:39:51.532Z,74.85
2017-09-04T03:42:19.150Z,75.43
2017-09-04T03:44:46.739Z,75.09
2017-09-04T03:47:14.517Z,75.24
2017-09-04T03:49:42.105Z,75.25
2017-09-04T03:52:09.694Z,75.66
2017-09-04T03:54:37.314Z,75.64
2017-09-04T03:57:04.910Z,75.14
2017-09-04T03:59:32.570Z,74.67
2017-09-04T04:02:00.221Z,75.15
2017-09-04T04:04:27.872Z,75.13
2017-09-04T04:06:55.478Z,75.75
2017-09-04T04:09:23.116Z,75.46
2017-09-04T04:11:50.742Z,76.08
2017-09-04T04:14:18.382Z,75.76
2017-09-04T04:16:45.988Z,75.97
2017-09-04T04:19:13.714Z,75.51
2017-09-04T04:21:41.302Z,75.63
2017-09-04T04:24:09.326Z,75.82
2017-09-04T04:26:36.922Z,76.31
2017-09-04T04:29:04.504Z,76.27
2017-09-04T04:31:32.253Z,76.22
2017-09-04T04:33:59.874Z,76.59
2017-09-04T04:36:27.515Z,76.70
2017-09-04T04:38:55.118Z,76.25
2017-09-04T04:41:22.768Z,75.99
2017-09-04T04:43:50.563Z,76.32
2017-09-04T04:46:18.232Z,76.05
2017-09-04T04:48:45.838Z,76.40
2017-09-04T04:51:13.474Z,76.46
2017-09-04T04:53:41.094Z,76.84
2017-09-04T04:56:09.006Z,76.99
2017-09-04T04:58:36.607Z,77.24
2017-09-04T05:01:04.226Z,77.51
2017-09-04T05:03:31.937Z,77.90
2017-09-04T05:05:59.614Z,77.47
2017-09-04T05:08:27.347Z,77.04
2017-09-04T05:10:54.934Z,77.30
2017-09-04T05:13:22.606Z,77.01
2017-09-04T05:15:50.370Z,76.01
2017-09-04T05:18:18.159Z,76.64
2017-09-04T05:20:45.771Z,76.65
2017-09-04T05:23:13.374Z,76.86
2017-09-04T05:25:41.023Z,77.40
2017-09-04T05:28:08.618Z,78.04
2017-09-04T05:30:36.555Z,78.28
2017-09-04T05:33:04.256Z,78.33
2017-09-04T05:35:31.836Z,78.82
2017-09-04T05:37:59.563Z,79.14
2017-09-04T05:40:27.171Z,79.37
2017-09-04T05:42:54.966Z,79.61
2017-09-04T05:45:22.578Z,79.66
2017-09-04T05:47:50.242Z,79.44
2017-09-04T05:50:17.894Z,79.34
2017-09-04T05:52:45.566Z,79.62
2017-09-04T05:55:13.202Z,79.54
2017-09-04T05:57:41.043Z,79.25
2017-09-04T06:00:08.678Z,79.42
2017-09-04T06:02:36.287Z,79.27
2017-09-04T06:05:03.934Z,79.54
2017-09-04T06:07:31.542Z,79.24
2017-09-04T06:09:59.210Z,79.09
2017-09-04T06:12:26.847Z,79.02
2017-09-04T06:14:54.513Z,78.95
2017-09-04T06:17:22.206Z,79.18
2017-09-04T06:19:51.987Z,79.42
2017-09-04T06:22:19.646Z,79.35
2017-09-04T06:24:47.339Z,79.07
2017-09-04T06:27:14.986Z,79.05
2017-09-04T06:29:42.820Z,79.29
2017-09-04T06:32:10.475Z,78.94
2017-09-04T06:34:38.075Z,79.37
2017-09-04T06:37:05.744Z,79.40
2017-09-04T06:39:33.358Z,79.51
2017-09-04T06:42:01.007Z,79.16
2017-09-04T06:44:28.718Z,78.77
2017-09-04T06:46:56.386Z,78.72
2017-09-04T06:49:24.028Z,78.56
2017-09-04T06:51:51.666Z,78.80
2017-09-04T06:54:19.318Z,78.91
2017-09-04T06:56:46.936Z,76.67
2017-09-04T06:59:14.556Z,77.01
2017-09-04T07:01:42.223Z,76.66
2017-09-04T07:04:09.866Z,76.30
2017-09-04T07:06:37.475Z,75.44
2017-09-04T07:09:05.076Z,76.05
2017-09-04T07:11:32.740Z,74.65
2017-09-04T07:14:00.362Z,74.98
2017-09-04T07:16:28.013Z,75.60
2017-09-04T07:18:55.621Z,75.66
2017-09-04T07:21:23.286Z,75.37
2017-09-04T07:23:50.891Z,74.84
2017-09-04T07:26:18.515Z,75.21
2017-09-04T07:28:46.186Z,75.40
2017-09-04T07:31:13.862Z,75.26
2017-09-04T07:33:41.474Z,75.55
2017-09-04T07:36:09.119Z,74.69
2017-09-04T07:38:36.747Z,74.60
2017-09-04T07:41:04.408Z,74.00
2017-09-04T07:43:32.002Z,74.18
2017-09-04T07:45:59.654Z,73.74
2017-09-04T07:48:27.251Z,73.82
2017-09-04T07:50:54.946Z,73.37
2017-09-04T07:53:22.566Z,73.65
2017-09-04T07:55:50.170Z,73.46
2017-09-04T07:58:17.807Z,73.22
2017-09-04T08:00:45.430Z,73.22
2017-09-04T08:03:13.082Z,73.58
2017-09-04T08:05:40.682Z,73.39
2017-09-04T08:08:08.363Z,73.32
2017-09-04T08:10:35.962Z,72.55
2017-09-04T08:13:03.583Z,72.32
2017-09-04T08:15:31.214Z,72.37
2017-09-04T08:17:58.842Z,71.81
2017-09-04T08:20:26.473Z,71.85
2017-09-04T08:22:54.082Z,71.45
2017-09-04T08:25:21.684Z,71.20
2017-09-04T08:27:49.302Z,69.82
2017-09-04T08:30:16.903Z,69.61
2017-09-04T08:32:44.614Z,68.91
2017-09-04T08:35:12.255Z,69.03
2017-09-04T08:37:39.852Z,68.71
2017-09-04T08:40:07.498Z,68.11
2017-09-04T08:42:35.253Z,68.65
2017-09-04T08:45:02.900Z,67.54
2017-09-04T08:47:30.505Z,66.56
2017-09-04T08:49:58.131Z,67.07
2017-09-04T08:52:25.775Z,66.49
2017-09-04T08:54:53.411Z,65.54
2017-09-04T08:57:21.095Z,66.07
2017-09-04T08:59:48.745Z,64.77
2017-09-04T09:02:16.340Z,63.81
2017-09-04T09:04:44.014Z,63.64
2017-09-04T09:07:11.614Z,63.53
2017-09-04T09:09:39.279Z,63.46
2017-09-04T09:12:06.898Z,63.45
2017-09-04T09:14:34.491Z,63.58
2017-09-04T09:17:02.194Z,63.38
2017-09-04T09:19:29.806Z,63.33
2017-09-04T09:21:57.437Z,63.09
2017-09-04T09:24:25.165Z,62.25
2017-09-04T09:26:52.863Z,62.04
2017-09-04T09:29:20.463Z,62.13
2017-09-04T09:31:48.102Z,62.24
2017-09-04T09:34:15.699Z,62.24
2017-09-04T09:36:43.335Z,62.56
2017-09-04T09:39:11.066Z,60.97
2017-09-04T09:41:38.740Z,61.23
2017-09-04T09:44:06.340Z,60.57
2017-09-04T09:46:33.952Z,61.75
2017-09-04T09:49:01.570Z,60.44
2017-09-04T09:51:29.174Z,58.98
2017-09-04T09:53:56.797Z,59.38
2017-09-04T09:56:24.410Z,59.10
2017-09-04T09:58:52.046Z,58.17
2017-09-04T10:01:19.700Z,59.28
2017-09-04T10:03:47.518Z,59.24
2017-09-04T10:06:15.114Z,59.87
2017-09-04T10:08:42.727Z,59.00
2017-09-04T10:11:10.343Z,58.29
2017-09-04T10:13:37.932Z,58.31
2017-09-04T10:16:05.654Z,57.58
2017-09-04T10:18:33.250Z,57.37
2017-09-04T10:21:00.885Z,57.47
2017-09-04T10:23:28.470Z,55.80
2017-09-04T10:25:56.138Z,56.02
2017-09-04T10:28:23.743Z,55.92
2017-09-04T10:30:51.358Z,55.28
2017-09-04T10:33:18.963Z,54.37
2017-09-04T10:35:46.579Z,53.42
2017-09-04T10:38:14.200Z,53.40
2017-09-04T10:40:41.837Z,53.32
2017-09-04T10:43:09.490Z,52.40
2017-09-04T10:45:37.115Z,51.25
2017-09-04T10:48:04.706Z,50.39
2017-09-04T10:50:32.348Z,50.34
2017-09-04T10:52:59.947Z,50.75
2017-09-04T10:55:27.602Z,51.43
2017-09-04T10:57:55.195Z,51.95
2017-09-04T11:00:22.806Z,50.94
2017-09-04T11:02:50.464Z,50.66
2017-09-04T11:05:18.058Z,50.60
2017-09-04T11:07:45.685Z,50.11
2017-09-04T11:10:13.294Z,49.41
2017-09-04T11:12:40.939Z,49.13
2017-09-04T11:15:08.542Z,50.19
2017-09-04T11:17:36.153Z,49.89
2017-09-04T11:20:03.743Z,49.18
2017-09-04T11:22:31.363Z,47.96
2017-09-04T11:24:58.976Z,46.94
2017-09-04T11:27:26.739Z,43.79
2017-09-04T11:29:54.322Z,42.21
2017-09-04T11:32:21.934Z,42.39
2017-09-04T11:34:49.558Z,43.16
2017-09-04T11:37:17.183Z,42.95
2017-09-04T11:39:44.785Z,43.43
2017-09-04T11:42:12.414Z,42.96
2017-09-04T11:44:40.021Z,43.91
2017-09-04T11:47:07.663Z,43.87
2017-09-04T11:49:35.258Z,43.87
2017-09-04T11:52:02.853Z,45.28
2017-09-04T11:54:30.475Z,45.49
2017-09-04T11:56:58.062Z,47.08
2017-09-04T11:59:25.679Z,46.27
2017-09-04T12:01:53.271Z,45.14
2017-09-04T12:04:20.886Z,42.49
2017-09-04T12:06:48.615Z,40.35
2017-09-04T12:09:16.259Z,40.20
2017-09-04T12:11:43.846Z,40.56
2017-09-04T12:14:11.474Z,39.54
2017-09-04T12:16:39.075Z,40.18
2017-09-04T12:19:06.697Z,40.34
2017-09-04T12:21:34.292Z,40.06
2017-09-04T12:24:01.893Z,39.33
2017-09-04T12:26:29.528Z,39.26
2017-09-04T12:28:57.150Z,39.48
2017-09-04T12:31:24.861Z,41.27
2017-09-04T12:33:52.458Z,41.24
2017-09-04T12:36:20.070Z,42.72
2017-09-04T12:38:47.674Z,44.08
2017-09-04T12:41:15.310Z,44.31
2017-09-04T12:43:42.920Z,43.47
2017-09-04T12:46:10.550Z,42.63
2017-09-04T12:48:38.184Z,41.69
2017-09-04T12:51:05.810Z,40.47
2017-09-04T12:53:33.398Z,39.00
2017-09-04T12:56:01.071Z,37.92
2017-09-04T12:58:28.667Z,38.07
2017-09-04T13:00:56.299Z,37.63
2017-09-04T13:03:23.921Z,37.09
2017-09-04T13:05:51.559Z,35.70
2017-09-04T13:08:19.163Z,34.68
2017-09-04T13:10:52.214Z,34.96
2017-09-04T13:13:23.218Z,34.97
2017-09-04T13:15:56.278Z,34.22
2017-09-04T13:21:41.428Z,34.05
2017-09-04T13:27:14.282Z,38.80
2017-09-04T13:32:48.495Z,39.28
2017-09-04T13:38:22.353Z,40.55
2017-09-04T13:40:55.470Z,40.87
2017-09-04T13:46:41.805Z,42.02
2017-09-04T13:49:14.976Z,41.41
2017-09-04T13:51:47.656Z,42.04
2017-09-04T13:54:20.894Z,41.88
2017-09-04T13:56:48.936Z,40.89
2017-09-04T13:59:22.136Z,41.54
2017-09-04T14:01:55.211Z,42.02
2017-09-04T14:04:28.452Z,41.73
2017-09-04T14:07:01.635Z,42.21
2017-09-04T14:09:34.696Z,41.68
2017-09-04T14:12:07.787Z,42.76
2017-09-04T14:14:40.823Z,42.24
2017-09-04T14:20:08.119Z,43.35
2017-09-04T14:22:35.766Z,43.06
2017-09-04T14:25:03.355Z,44.01
2017-09-04T14:27:30.966Z,45.26
2017-09-04T14:29:58.583Z,44.38
2017-09-04T14:32:26.981Z,44.33
2017-09-04T14:34:54.568Z,44.76
2017-09-04T14:37:22.164Z,44.64
2017-09-04T14:39:49.774Z,44.45
2017-09-04T14:42:17.375Z,44.59
2017-09-04T14:44:47.469Z,44.12
2017-09-04T14:47:17.427Z,45.12
2017-09-04T14:49:45.052Z,44.65
2017-09-04T14:52:12.648Z,45.10
2017-09-04T14:54:40.271Z,44.64
2017-09-04T14:57:07.880Z,44.93
2017-09-04T14:59:35.503Z,44.76
2017-09-04T15:02:03.098Z,44.57
2017-09-04T15:04:30.762Z,44.62
2017-09-04T15:06:58.378Z,44.81
2017-09-04T15:09:25.964Z,45.02
2017-09-04T15:11:53.617Z,46.35
2017-09-04T15:14:21.197Z,46.24
2017-09-04T15:16:48.814Z,46.66
2017-09-04T15:19:16.407Z,47.24
2017-09-04T15:21:44.027Z,48.05
2017-09-04T15:24:11.700Z,48.11
2017-09-04T15:26:39.321Z,48.52
2017-09-04T15:29:06.919Z,48.63
2017-09-04T15:31:34.698Z,48.56
2017-09-04T15:34:02.364Z,49.08
2017-09-04T15:36:30.001Z,49.25
2017-09-04T15:38:57.643Z,49.81
2017-09-04T15:41:25.267Z,49.91
2017-09-04T15:43:52.887Z,50.15
2017-09-04T15:46:20.478Z,50.21
2017-09-04T15:48:48.091Z,50.17
2017-09-04T15:51:15.706Z,50.41
2017-09-04T15:53:43.315Z,49.88
2017-09-04T15:56:11.023Z,48.95
2017-09-04T15:58:38.636Z,50.41
2017-09-04T16:01:06.274Z,52.13
2017-09-04T16:03:33.908Z,53.02
2017-09-04T16:06:01.874Z,53.94
2017-09-04T16:08:29.462Z,53.97
2017-09-04T16:10:58.626Z,53.89
2017-09-04T16:13:26.226Z,53.66
2017-09-04T16:15:53.828Z,53.94
2017-09-04T16:18:25.824Z,53.56
2017-09-04T16:20:55.759Z,53.50
2017-09-04T16:23:33.290Z,53.53
2017-09-04T16:26:00.911Z,53.35
2017-09-04T16:28:30.558Z,52.88
2017-09-04T16:30:58.169Z,53.75
2017-09-04T16:33:29.212Z,53.76
2017-09-04T16:38:59.598Z,54.19
2017-09-04T16:41:27.198Z,54.36
2017-09-04T16:43:54.807Z,54.35
2017-09-04T16:46:30.798Z,54.26
2017-09-04T16:49:04.422Z,54.57
2017-09-04T16:51:35.567Z,54.44
2017-09-04T16:54:08.738Z,54.74
2017-09-04T16:59:32.496Z,54.84
2017-09-04T17:02:00.184Z,54.91
2017-09-04T17:04:28.565Z,54.99
2017-09-04T17:06:56.208Z,54.55
2017-09-04T17:09:23.879Z,54.68
2017-09-04T17:14:48.665Z,55.74
2017-09-04T17:17:16.376Z,55.86
2017-09-04T17:19:57.650Z,56.13
2017-09-04T17:22:25.645Z,56.05
2017-09-04T17:24:53.255Z,56.20
2017-09-04T17:27:20.911Z,56.33
2017-09-04T17:29:48.514Z,56.24
2017-09-04T17:32:16.145Z,56.43
2017-09-04T17:34:43.738Z,56.39
2017-09-04T17:37:11.370Z,56.50
2017-09-04T17:39:39.003Z,56.42
2017-09-04T17:42:06.634Z,56.68
2017-09-04T17:44:34.787Z,56.74
2017-09-04T17:47:02.480Z,56.62
2017-09-04T17:49:30.084Z,57.27
2017-09-04T17:51:57.712Z,57.29
2017-09-04T17:54:25.422Z,57.55
2017-09-04T17:56:53.006Z,57.53
2017-09-04T17:59:20.668Z,57.67
2017-09-04T18:01:48.294Z,57.94
2017-09-04T18:04:15.953Z,58.21
2017-09-04T18:06:43.570Z,58.59
2017-09-04T18:09:11.261Z,58.90
2017-09-04T18:11:38.862Z,59.15
2017-09-04T18:14:06.501Z,59.74
2017-09-04T18:16:34.110Z,60.07
2017-09-04T18:19:01.752Z,60.22
2017-09-04T18:21:29.364Z,60.22
2017-09-04T18:23:56.990Z,60.44
2017-09-04T18:26:24.609Z,60.71
2017-09-04T18:28:52.289Z,60.97
2017-09-04T18:31:19.971Z,60.79
2017-09-04T18:33:47.593Z,61.13
2017-09-04T18:36:15.210Z,61.50
2017-09-04T18:38:42.841Z,61.82
2017-09-04T18:41:10.435Z,62.03
2017-09-04T18:43:38.066Z,62.39
2017-09-04T18:46:05.675Z,62.52
2017-09-04T18:48:33.292Z,62.83
2017-09-04T18:51:00.907Z,63.13
2017-09-04T18:53:28.538Z,63.41
2017-09-04T18:55:56.127Z,63.39
2017-09-04T18:58:23.746Z,63.52
2017-09-04T19:00:51.350Z,63.60
2017-09-04T19:03:18.987Z,63.79
2017-09-04T19:05:46.594Z,64.13
2017-09-04T19:08:14.247Z,64.28
2017-09-04T19:10:41.843Z,64.39
2017-09-04T19:13:09.503Z,64.45
2017-09-04T19:15:37.203Z,64.62
2017-09-04T19:18:04.843Z,64.69
2017-09-04T19:20:32.463Z,65.15
2017-09-04T19:23:00.140Z,65.16
2017-09-04T19:25:27.735Z,65.15
2017-09-04T19:27:55.379Z,65.32
2017-09-04T19:30:22.989Z,65.20
2017-09-04T19:32:50.637Z,64.90
2017-09-04T19:35:18.250Z,64.99
2017-09-04T19:37:45.874Z,64.97
2017-09-04T19:40:13.519Z,64.76
2017-09-04T19:42:41.182Z,64.85
2017-09-04T19:45:08.798Z,65.01
2017-09-04T19:47:36.427Z,65.20
2017-09-04T19:50:04.069Z,65.32
2017-09-04T19:52:31.684Z,65.36
2017-09-04T19:54:59.490Z,65.55
2017-09-04T19:57:27.107Z,65.88
2017-09-04T19:59:54.845Z,66.03
2017-09-04T20:02:22.462Z,66.27
2017-09-04T20:04:50.100Z,66.40
2017-09-04T20:07:17.719Z,66.50
2017-09-04T20:09:45.407Z,66.62
2017-09-04T20:12:13.008Z,66.81
2017-09-04T20:14:40.676Z,66.99
2017-09-04T20:17:08.267Z,67.21
2017-09-04T20:19:35.915Z,67.56
2017-09-04T20:22:03.526Z,67.87
2017-09-04T20:24:31.234Z,68.19
2017-09-04T20:26:58.843Z,68.59
2017-09-04T20:29:26.466Z,68.85
2017-09-04T20:31:54.083Z,69.06
2017-09-04T20:34:21.918Z,69.46
2017-09-04T20:36:49.537Z,69.96
2017-09-04T20:39:17.170Z,70.25
2017-09-04T20:41:44.817Z,70.46
2017-09-04T20:44:12.504Z,70.53
2017-09-04T20:46:40.099Z,70.72
2017-09-04T20:49:07.774Z,70.78
2017-09-04T20:51:35.402Z,71.27
2017-09-04T20:54:03.037Z,71.35
2017-09-04T20:56:30.637Z,71.55
2017-09-04T20:58:58.291Z,71.45
2017-09-04T21:01:25.899Z,71.54
2017-09-04T21:03:53.566Z,71.58
2017-09-04T21:06:21.170Z,71.77
2017-09-04T21:08:48.826Z,71.92
2017-09-04T21:11:16.430Z,71.86
2017-09-04T21:13:44.071Z,72.12
2017-09-04T21:16:11.670Z,72.34
2017-09-04T21:18:39.270Z,72.12
2017-09-04T21:21:06.899Z,71.83
2017-09-04T21:23:34.538Z,71.97
2017-09-04T21:26:02.147Z,71.93
2017-09-04T21:28:29.827Z,71.83
2017-09-04T21:30:57.420Z,71.75
2017-09-04T21:33:25.103Z,72.05
2017-09-04T21:35:52.706Z,72.37
2017-09-04T21:38:20.333Z,72.51
2017-09-04T21:40:47.922Z,72.76
2017-09-04T21:43:15.567Z,72.76
2017-09-04T21:45:44.066Z,72.56
2017-09-04T21:48:11.711Z,72.53
2017-09-04T21:50:39.324Z,72.50
2017-09-04T21:53:06.994Z,72.88
2017-09-04T21:55:34.613Z,72.83
2017-09-04T21:58:02.202Z,72.70
2017-09-04T22:00:29.868Z,72.53
2017-09-04T22:02:57.461Z,72.54
2017-09-04T22:05:25.106Z,72.42
2017-09-04T22:07:52.714Z,72.37
2017-09-04T22:10:20.363Z,72.35
2017-09-04T22:12:47.979Z,72.66
2017-09-04T22:15:15.610Z,72.70
2017-09-04T22:17:43.208Z,72.32
2017-09-04T22:20:10.843Z,72.15
2017-09-04T22:22:38.444Z,71.88
2017-09-04T22:25:06.114Z,71.86
2017-09-04T22:27:33.775Z,72.10
2017-09-04T22:30:01.374Z,72.30
2017-09-04T22:32:28.971Z,72.68
2017-09-04T22:34:56.606Z,72.10
2017-09-04T22:37:24.202Z,72.19
2017-09-04T22:39:51.858Z,72.26
2017-09-04T22:42:19.463Z,72.29
2017-09-04T22:44:47.168Z,72.39
2017-09-04T22:47:14.734Z,72.29
2017-09-04T22:49:42.354Z,72.18
2017-09-04T22:52:09.948Z,72.05
2017-09-04T22:54:37.599Z,72.46
2017-09-04T22:57:05.202Z,72.87
2017-09-04T22:59:32.870Z,72.91
2017-09-04T23:02:00.487Z,73.06
2017-09-04T23:04:28.123Z,72.96
2017-09-04T23:06:55.743Z,72.98
2017-09-04T23:09:23.415Z,72.79
2017-09-04T23:11:50.987Z,73.11
2017-09-04T23:14:18.611Z,73.07
2017-09-04T23:16:46.212Z,73.19
2017-09-04T23:19:13.935Z,73.39
2017-09-04T23:21:41.543Z,73.82
2017-09-04T23:24:09.182Z,74.16
2017-09-04T23:26:36.807Z,74.26
2017-09-04T23:29:04.437Z,74.47
2017-09-04T23:31:32.095Z,74.64
2017-09-04T23:33:59.721Z,74.62
2017-09-04T23:36:27.322Z,75.18
2017-09-04T23:38:54.947Z,75.46
2017-09-04T23:41:22.538Z,75.53
2017-09-04T23:43:50.166Z,75.87
2017-09-04T23:46:17.762Z,76.21
2017-09-04T23:48:45.463Z,76.82
2017-09-04T23:51:13.047Z,77.49
2017-09-04T23:53:40.710Z,77.75
2017-09-04T23:56:08.295Z,77.87
2017-09-04T23:58:35.918Z,77.34
